South Bloomfield, Ohio
Current Conditions -  °F | °C
As of 3:35 AM on Tuesday 21 Oct 2014 (Local Time) from KLCK Reporting Station
Light Rain Light Rain  
Wind Chill: 47°   Ceiling: 2000
Heat Index: 47°   Visibility: 5mi
Dew Point: 46°   Wind: 0mph
Humidity: 97%   Direction: NA
Pressure: 29.9"   Gusts: NA
Location:  39.7281°N, 82.9134°W
Report Text: KLCK 210735Z AUTO 00000KT 5SM -RA BKN020 BKN033 OVC065 08/08 A2990 RMK AO2 T00830079
Loading
Personal Weather Stations






























Interactive Weather Map
Tropical Storm Tracking
New forecast layout! Learn more

10-Day Weather Forecast

Advertisements
Track Severe Weather on mobile